createdAt,value
2023-05-01T00:01:26.060Z,100177.16
2023-05-01T00:06:28.237Z,100181.13
2023-05-01T00:11:29.888Z,100169.97
2023-05-01T00:16:31.580Z,100174.28
2023-05-01T00:21:33.246Z,100168.66
2023-05-01T00:26:34.853Z,100169.19
2023-05-01T00:31:36.769Z,100164.75
2023-05-01T00:36:38.688Z,100161.66
2023-05-01T00:41:40.647Z,100151.53
2023-05-01T00:46:43.708Z,100147.91
2023-05-01T00:51:49.445Z,100144.81
2023-05-01T00:56:52.399Z,100143.09
2023-05-01T01:01:56.325Z,100138.09
2023-05-01T01:07:12.032Z,100129.81
2023-05-01T01:12:29.831Z,100132.75
2023-05-01T01:17:56.223Z,100132.66
2023-05-01T01:23:36.772Z,100121.63
2023-05-01T01:29:23.428Z,100122.88
2023-05-01T01:34:35.417Z,100117.38
2023-05-01T01:40:01.328Z,100112.06
2023-05-01T01:45:10.861Z,100099.63
2023-05-01T01:50:15.080Z,100097.47
2023-05-01T01:55:21.588Z,100103.41
2023-05-01T02:00:23.815Z,100088.69
2023-05-01T02:05:26.724Z,100090.19
2023-05-01T02:10:30.116Z,100086.25
2023-05-01T02:15:34.063Z,100080.56
2023-05-01T02:20:37.881Z,100075.97
2023-05-01T02:25:40.007Z,100078.31
2023-05-01T02:30:41.782Z,100067.97
2023-05-01T02:35:44.534Z,100072.78
2023-05-01T02:40:53.408Z,100076.31
2023-05-01T02:45:56.789Z,100063.84
2023-05-01T02:51:01.299Z,100063.09
2023-05-01T02:56:04.959Z,100061.59
2023-05-01T03:01:07.102Z,100059.41
2023-05-01T03:06:09.087Z,100053.59
2023-05-01T03:11:10.801Z,100042.00
2023-05-01T03:16:12.482Z,100041.53
2023-05-01T03:21:14.170Z,100043.50
2023-05-01T03:26:15.811Z,100037.50
2023-05-01T03:31:17.628Z,100034.94
2023-05-01T03:36:19.609Z,100034.38
2023-05-01T03:41:23.590Z,100025.63
2023-05-01T03:46:52.948Z,100021.81
2023-05-01T03:51:58.868Z,100023.59
2023-05-01T03:57:01.408Z,100025.94
2023-05-01T04:02:03.399Z,100017.72
2023-05-01T04:07:07.702Z,100020.16
2023-05-01T04:12:09.677Z,100014.25
2023-05-01T04:17:11.630Z,100012.38
2023-05-01T04:22:13.481Z,100000.03
2023-05-01T04:27:16.296Z,100004.25
2023-05-01T04:32:17.949Z,99992.47
2023-05-01T04:37:19.650Z,100002.00
2023-05-01T04:42:21.400Z,99994.56
2023-05-01T04:47:23.082Z,99991.03
2023-05-01T04:52:24.790Z,99997.22
2023-05-01T04:57:31.752Z,99987.59
2023-05-01T05:02:34.526Z,99986.38
2023-05-01T05:07:36.336Z,99990.22
2023-05-01T05:12:56.952Z,99998.38
2023-05-01T05:17:58.648Z,99994.03
2023-05-01T05:23:00.498Z,99983.94
2023-05-01T05:28:02.217Z,99992.00
2023-05-01T05:33:05.343Z,99984.25
2023-05-01T05:38:07.153Z,99986.38
2023-05-01T05:43:11.960Z,99976.34
2023-05-01T05:48:14.397Z,99975.97
2023-05-01T05:53:16.447Z,99974.72
2023-05-01T05:58:22.607Z,99960.81
2023-05-01T06:03:24.985Z,99963.50
2023-05-01T06:08:29.911Z,99959.91
2023-05-01T06:13:33.006Z,99952.22
2023-05-01T06:18:34.647Z,99947.63
2023-05-01T06:23:36.303Z,99942.50
2023-05-01T06:28:55.926Z,99943.72
2023-05-01T06:33:58.199Z,99945.47
2023-05-01T06:39:07.172Z,99928.16
2023-05-01T06:44:08.847Z,99923.56
2023-05-01T06:49:12.634Z,99920.19
2023-05-01T06:54:14.318Z,99909.41
2023-05-01T06:59:15.947Z,99907.25
2023-05-01T07:04:17.621Z,99898.06
2023-05-01T07:09:19.562Z,99882.16
2023-05-01T07:14:21.179Z,99876.25
2023-05-01T07:19:22.891Z,99874.44
2023-05-01T07:24:24.603Z,99873.72
2023-05-01T07:29:26.213Z,99860.78
2023-05-01T07:34:27.832Z,99855.34
2023-05-01T07:39:29.443Z,99850.72
2023-05-01T07:44:31.066Z,99851.59
2023-05-01T07:49:37.603Z,99845.06
2023-05-01T07:54:39.228Z,99847.72
2023-05-01T07:59:40.841Z,99839.41
2023-05-01T08:04:42.846Z,99831.16
2023-05-01T08:09:44.559Z,99841.72
2023-05-01T08:14:46.342Z,99817.34
2023-05-01T08:19:47.960Z,99823.91
2023-05-01T08:24:50.736Z,99825.34
2023-05-01T08:29:52.361Z,99822.97
2023-05-01T08:34:54.836Z,99829.13
2023-05-01T08:39:56.748Z,99815.19
2023-05-01T08:45:00.207Z,99831.69
2023-05-01T08:50:03.529Z,99817.44
2023-05-01T08:55:07.952Z,99821.94
2023-05-01T09:00:14.102Z,99817.03
2023-05-01T09:05:17.243Z,99816.25
2023-05-01T09:10:19.451Z,99806.41
2023-05-01T09:15:21.615Z,99809.16
2023-05-01T09:20:24.363Z,99802.09
2023-05-01T09:25:26.308Z,99784.22
2023-05-01T09:30:36.698Z,99777.72
2023-05-01T09:35:54.665Z,99764.25
2023-05-01T09:41:04.266Z,99772.81
2023-05-01T09:46:10.969Z,99770.31
2023-05-01T09:51:29.902Z,99761.97
2023-05-01T09:56:33.255Z,99756.44
2023-05-01T10:01:43.510Z,99752.91
2023-05-01T10:06:45.400Z,99738.22
2023-05-01T10:11:55.703Z,99745.78
2023-05-01T10:16:58.180Z,99734.78
2023-05-01T10:22:00.193Z,99719.53
2023-05-01T10:27:04.803Z,99726.75
2023-05-01T10:32:08.495Z,99715.88
2023-05-01T10:37:18.280Z,99709.66
2023-05-01T10:42:19.900Z,99705.03
2023-05-01T10:47:24.486Z,99701.06
2023-05-01T10:52:26.342Z,99697.53
2023-05-01T10:57:43.787Z,99676.25
2023-05-01T11:02:45.577Z,99669.97
2023-05-01T11:07:48.205Z,99653.59
2023-05-01T11:12:53.822Z,99645.16
2023-05-01T11:17:56.140Z,99634.91
2023-05-01T11:22:58.741Z,99641.50
2023-05-01T11:28:02.230Z,99628.63
2023-05-01T11:33:04.486Z,99618.19
2023-05-01T11:38:06.164Z,99602.75
2023-05-01T11:43:09.020Z,99598.63
2023-05-01T11:48:16.891Z,99589.28
2023-05-01T11:53:18.773Z,99580.22
2023-05-01T11:58:32.619Z,99564.22
2023-05-01T12:03:43.998Z,99543.91
2023-05-01T12:08:51.184Z,99532.28
2023-05-01T12:13:53.364Z,99534.38
2023-05-01T12:18:55.581Z,99535.16
2023-05-01T12:23:59.942Z,99525.84
2023-05-01T12:29:04.419Z,99524.97
2023-05-01T12:34:07.675Z,99514.75
2023-05-01T12:39:14.232Z,99510.22
2023-05-01T12:44:22.791Z,99496.09
2023-05-01T12:49:24.854Z,99489.41
2023-05-01T12:54:40.431Z,99472.53
2023-05-01T12:59:46.932Z,99476.09
2023-05-01T13:04:49.986Z,99476.75
2023-05-01T13:09:53.364Z,99465.91
2023-05-01T13:14:55.297Z,99463.69
2023-05-01T13:20:05.107Z,99461.84
2023-05-01T13:25:18.060Z,99453.28
2023-05-01T13:30:22.096Z,99455.69
2023-05-01T13:35:25.037Z,99441.06
2023-05-01T13:40:27.878Z,99436.69
2023-05-01T13:45:29.844Z,99432.97
2023-05-01T13:50:31.654Z,99436.44
2023-05-01T13:55:33.483Z,99426.19
2023-05-01T14:00:35.164Z,99433.72
2023-05-01T14:05:36.822Z,99423.94
2023-05-01T14:10:38.641Z,99421.47
2023-05-01T14:15:43.923Z,99409.63
2023-05-01T14:20:47.474Z,99404.16
2023-05-01T14:25:49.397Z,99405.75
2023-05-01T14:30:51.443Z,99399.28
2023-05-01T14:35:53.913Z,99406.66
2023-05-01T14:40:55.610Z,99387.06
2023-05-01T14:45:57.311Z,99385.72
2023-05-01T14:50:59.504Z,99389.06
2023-05-01T14:56:01.330Z,99388.06
2023-05-01T15:01:03.424Z,99391.06
2023-05-01T15:06:05.390Z,99391.09
2023-05-01T15:11:07.732Z,99385.16
2023-05-01T15:16:10.979Z,99387.72
2023-05-01T15:21:12.762Z,99388.44
2023-05-01T15:26:14.418Z,99392.75
2023-05-01T15:31:16.200Z,99381.59
2023-05-01T15:36:18.232Z,99385.22
2023-05-01T15:41:19.950Z,99378.53
2023-05-01T15:46:23.487Z,99371.00
2023-05-01T15:51:26.007Z,99366.13
2023-05-01T15:56:27.709Z,99374.72
2023-05-01T16:01:31.545Z,99367.28
2023-05-01T16:06:35.179Z,99367.50
2023-05-01T16:11:36.851Z,99366.53
2023-05-01T16:16:41.680Z,99365.06
2023-05-01T16:21:43.566Z,99363.91
2023-05-01T16:26:45.253Z,99360.97
2023-05-01T16:31:49.795Z,99362.28
2023-05-01T16:36:51.478Z,99364.19
2023-05-01T16:41:54.807Z,99358.38
2023-05-01T16:46:58.711Z,99360.41
2023-05-01T16:52:02.543Z,99351.19
2023-05-01T16:57:05.842Z,99357.13
2023-05-01T17:02:07.936Z,99359.41
2023-05-01T17:07:09.742Z,99351.38
2023-05-01T17:12:11.389Z,99344.38
2023-05-01T17:17:13.409Z,99354.53
2023-05-01T17:22:15.168Z,99358.66
2023-05-01T17:27:16.787Z,99357.41
2023-05-01T17:32:29.546Z,99351.97
2023-05-01T17:37:39.917Z,99357.59
2023-05-01T17:42:41.970Z,99362.56
2023-05-01T17:47:45.105Z,99363.69
2023-05-01T17:52:46.766Z,99362.28
2023-05-01T17:57:48.537Z,99355.25
2023-05-01T18:02:50.184Z,99354.09
2023-05-01T18:07:51.854Z,99357.09
2023-05-01T18:12:53.557Z,99355.66
2023-05-01T18:17:55.402Z,99367.19
2023-05-01T18:22:57.061Z,99367.97
2023-05-01T18:27:58.828Z,99378.25
2023-05-01T18:33:00.693Z,99369.66
2023-05-01T18:38:02.321Z,99376.22
2023-05-01T18:43:03.937Z,99382.06
2023-05-01T18:48:05.840Z,99376.69
2023-05-01T18:53:07.625Z,99382.94
2023-05-01T18:58:09.243Z,99380.09
2023-05-01T19:03:13.324Z,99382.34
2023-05-01T19:08:15.111Z,99387.59
2023-05-01T19:13:16.814Z,99388.44
2023-05-01T19:18:18.477Z,99391.97
2023-05-01T19:23:20.114Z,99393.03
2023-05-01T19:28:21.715Z,99391.78
2023-05-01T19:33:23.499Z,99387.41
2023-05-01T19:38:25.486Z,99392.63
2023-05-01T19:43:27.105Z,99394.53
2023-05-01T19:48:28.718Z,99397.25
2023-05-01T19:53:31.187Z,99397.66
2023-05-01T19:58:32.788Z,99397.44
2023-05-01T20:03:34.515Z,99395.78
2023-05-01T20:08:36.170Z,99394.31
2023-05-01T20:13:37.882Z,99403.47
2023-05-01T20:18:39.554Z,99399.75
2023-05-01T20:23:41.204Z,99409.94
2023-05-01T20:28:43.074Z,99429.88
2023-05-01T20:33:44.746Z,99433.88
2023-05-01T20:38:47.707Z,99459.91
2023-05-01T20:43:49.380Z,99458.63
2023-05-01T20:48:51.827Z,99471.13
2023-05-01T20:53:53.590Z,99477.63
2023-05-01T20:58:55.184Z,99487.19
2023-05-01T21:03:58.871Z,99495.75
2023-05-01T21:09:01.078Z,99499.50
2023-05-01T21:14:02.978Z,99511.72
2023-05-01T21:19:04.641Z,99516.72
2023-05-01T21:24:08.164Z,99518.75
2023-05-01T21:29:09.869Z,99521.56
2023-05-01T21:34:11.760Z,99531.03
2023-05-01T21:39:13.615Z,99521.69
2023-05-01T21:44:15.695Z,99514.97
2023-05-01T21:49:23.027Z,99527.09
2023-05-01T21:54:24.785Z,99527.56
2023-05-01T21:59:40.687Z,99524.19
2023-05-01T22:04:42.325Z,99519.31
2023-05-01T22:09:44.019Z,99521.22
2023-05-01T22:14:47.695Z,99529.63
2023-05-01T22:19:51.596Z,99532.81
2023-05-01T22:24:53.217Z,99524.88
2023-05-01T22:29:54.813Z,99517.78
2023-05-01T22:34:56.594Z,99519.84
2023-05-01T22:39:58.460Z,99524.41
2023-05-01T22:45:00.293Z,99531.53
2023-05-01T22:50:02.278Z,99531.56
2023-05-01T22:55:04.643Z,99539.44
2023-05-01T23:00:08.064Z,99548.50
2023-05-01T23:05:10.462Z,99544.97
2023-05-01T23:10:12.460Z,99548.28
2023-05-01T23:15:18.529Z,99550.84
2023-05-01T23:20:25.220Z,99555.72
2023-05-01T23:25:26.966Z,99568.84
2023-05-01T23:30:28.605Z,99561.56
2023-05-01T23:35:30.302Z,99556.19
2023-05-01T23:40:31.993Z,99552.34
2023-05-01T23:45:33.839Z,99555.91
2023-05-01T23:50:35.945Z,99550.22
2023-05-01T23:55:43.603Z,99548.78
